CheckWX is a tool to help pilots better visualize weather data.  It is not intended as a substitute for an official pre-flight weather briefing.

12:40:22 UTC

KINK METAR
Winkler County Airport
Wink, Texas, USA
Current

47 mins ago

KINK 251153Z AUTO 35007KT 10SM CLR 09/03 A3014 RMK AO2 SLP175 T00890028 10150 20072 53017 $
Observed
Mar-25 @ 11:53 UTC
Wind
  • 350° at 7 KTS
Visibility
10 SM
Flight Rules
VFR
Cloud Levels
  • Clear skies
Temperature
C / 48°F
Dewpoint
C / 37°F
Humidity
66%
Altimeter
30.14" Hg
Pressure
1017.5 hPa
Previous

2 hours ago

KINK 251053Z AUTO 00000KT 10SM CLR 08/01 A3011 RMK AO2 SLP165 T00780011 $
Observed
Mar-25 @ 10:53 UTC
Visibility
10 SM
Flight Rules
VFR
Cloud Levels
  • Clear skies
Temperature
C / 46°F
Dewpoint
C / 34°F
Humidity
62%
Altimeter
30.11" Hg
Pressure
1016.5 hPa
Previous

3 hours ago

KINK 250953Z AUTO 36006KT 10SM CLR 08/M01 A3009 RMK AO2 SLP160 T00831006 $
Observed
Mar-25 @ 09:53 UTC
Wind
  • 360° at 6 KTS
Visibility
10 SM
Flight Rules
VFR
Cloud Levels
  • Clear skies
Temperature
C / 46°F
Dewpoint
-1°C / 30°F
Humidity
53%
Altimeter
30.09" Hg
Pressure
1016 hPa